x

8447387 - Borden Flats Light At Fall River, Ma (bltm3) Weather Station

5:54 - Wed 26th Jul 2017 All times are EDT. -4 hours from GMT.

  • Wind
    16mph, 17mph gusts
  • Aire Temp 72°f
  • Sea Pressure 1019.6mb
  • 8447387 - Borden Flats Light At Fall River, Ma
  • 8447387 - Borden Flats Light At Fall River, Ma

More Historic Weather Station data

Upgrade to MSW Pro to gain access to the past 30 days of data for over 8000 Wavebouys and Weather Stations around the globe.

Join Pro

Comparision Forecast

View Surf forecast
   
mié 07/26 5:54 16 17 mph 1019.6mb 72f
5:48 15 16 mph 1019.5mb 72f
5:42 15 17 mph 1019.5mb 72f
5:36 14 16 mph 1019.6mb 73f
5:30 14 17 mph 1019.6mb 73f
5:24 11 14 mph 1019.8mb 73f
5:18 14 15 mph 1019.9mb 73f
5:12 13 14 mph 1019.9mb 73f
5:06 14 15 mph 1019.9mb 73f
5:00 14 15 mph 1019.8mb 73f
4:54 15 16 mph 1019.9mb 73f
4:48 15 16 mph 1020mb 73f
4:42 14 15 mph 1020mb 73f
4:36 14 16 mph 1020mb 73f
4:30 14 15 mph 1020mb 73f
4:24 14 15 mph 1020mb 73f
4:18 14 14 mph 1020mb 73f
4:12 13 14 mph 1020.2mb 73f
4:06 14 15 mph 1020.3mb 73f
4:00 14 14 mph 1020.4mb 73f
3:54 15 15 mph 1020.5mb 73f
3:48 14 15 mph 1020.5mb 73f
3:42 14 15 mph 1020.4mb 73f
3:36 14 15 mph 1020.5mb 73f
3:30 14 14 mph 1020.5mb 73f
3:24 13 14 mph 1020.4mb 73f
3:18 13 14 mph 1020.4mb 73f
3:12 13 13 mph 1020.5mb 73f
3:06 13 14 mph 1020.5mb 73f
3:00 13 14 mph 1020.6mb 73f
2:54 13 14 mph 1020.7mb 73f
2:48 13 14 mph 1020.9mb 73f
2:42 14 14 mph 1020.9mb 73f
2:36 14 15 mph 1020.9mb 73f
2:30 15 16 mph 1020.9mb 72f
2:24 15 16 mph 1021.1mb 72f
2:18 14 14 mph 1021.1mb 72f
2:12 13 14 mph 1021.2mb 72f
2:06 14 14 mph 1021.2mb -
2:00 14 14 mph 1021.2mb -
1:54 13 14 mph 1021.3mb -
1:48 11 13 mph 1021.3mb -
1:42 14 14 mph 1021.4mb -
1:36 13 14 mph 1021.5mb -
1:30 11 13 mph 1021.5mb -
1:24 11 13 mph 1021.4mb -
1:18 11 14 mph 1021.4mb -
1:12 1 2 mph 1021.5mb 81f
1:06 5 7 mph 1021.5mb 80f
1:00 6 7 mph 1021.6mb 80f
12:54 5 6 mph 1021.8mb 80f
12:48 3 5 mph 1021.9mb 79f
12:42 5 8 mph 1021.8mb 80f
12:36  -  1 mph 1021.9mb 79f
12:30 2 5 mph 1022mb 78f
12:24 5 6 mph 1022mb 78f
12:18 6 7 mph 1022mb 79f
12:12 5 6 mph 1022mb 79f
12:06 3 6 mph 1022.1mb 78f
12:00 5 6 mph 1022.2mb 78f
11:54 7 8 mph 1022.3mb 77f
11:48 6 7 mph 1022.3mb 77f
11:42 6 7 mph 1022.4mb 75f
11:36 3 7 mph 1022.4mb 73f
11:30  -  3 mph 1022.4mb 72f
11:24  -  2 mph 1022.5mb 72f
11:18  -  1 mph 1022.6mb 72f
11:12 2 5 mph 1022.8mb 71f
11:06 3 3 mph 1022.9mb 71f
11:00 2 3 mph 1023mb 70f
10:54 3 5 mph 1023mb 70f
10:48 5 5 mph 1022.9mb 70f
10:42  -  2 mph 1022.8mb 70f
10:36  -  2 mph 1022.9mb 69f
10:30 2 3 mph 1023mb 69f
10:24  -  1 mph 1023.1mb 69f
10:18 2 2 mph 1023.1mb 68f
10:12 1 2 mph 1023.1mb 68f
10:06 2 3 mph 1023.2mb 68f
10:00 2 3 mph 1023.1mb 67f
9:54 1 2 mph 1023.1mb 67f
9:48 1 2 mph 1023.1mb 67f
9:42 2 3 mph 1023.1mb 67f
9:36 2 2 mph 1023.1mb 67f
9:30 2 5 mph 1023.2mb 67f
9:24 2 3 mph 1023.1mb 69f
9:18 3 3 mph 1023.1mb 69f
9:12 5 5 mph 1023.1mb 68f
9:06 5 6 mph 1023mb 68f
9:00 6 6 mph 1023mb 68f
8:54 5 6 mph 1022.9mb 67f
8:48 5 6 mph 1022.9mb 67f
8:42 5 6 mph 1022.9mb 66f
8:36 3 6 mph 1022.9mb 65f
8:30 2 3 mph 1022.9mb 65f
8:24  -  2 mph 1022.9mb 64f
8:18  -  1 mph 1022.9mb 64f
8:12  -  1 mph 1023mb 64f
8:06  -  2 mph 1022.9mb 63f
8:00  -  1 mph 1023mb 63f
7:54  -  0 mph 1023mb 63f
7:48 1 2 mph 1023mb 63f
7:42 1 3 mph 1023mb 62f
7:36 3 3 mph 1023mb 62f
7:30 5 6 mph 1022.9mb 62f
7:24 2 5 mph 1022.9mb 61f
7:18 2 3 mph 1022.9mb 60f
7:12 2 3 mph 1022.9mb 60f
7:06 2 3 mph 1022.8mb 60f
7:00 2 3 mph 1022.7mb 60f
6:54  -  3 mph 1022.6mb 60f
6:48 1 2 mph 1022.6mb 60f
6:42 1 3 mph 1022.5mb 60f
6:36 2 3 mph 1022.5mb 60f
6:30 1 3 mph 1022.5mb 60f
6:24 1 2 mph 1022.5mb 60f
6:18 3 5 mph 1022.5mb 60f
6:12  -  2 mph 1022.6mb 60f
6:06 1 2 mph 1022.6mb 60f
6:00 2 3 mph 1022.6mb 60f
5:54 3 3 mph 1022.5mb 60f
5:48 2 3 mph 1022.4mb 60f
5:42 3 5 mph 1022.4mb 60f
5:36 3 6 mph 1022.4mb 60f
5:30 3 5 mph 1022.3mb 60f
5:24 2 3 mph 1022.3mb 60f
5:18 2 3 mph 1022.2mb 60f
5:12 2 3 mph 1022.1mb 60f
5:06 2 3 mph 1022.2mb 60f
5:00 2 3 mph 1022.2mb 60f
4:54 2 2 mph 1022.1mb 60f
4:48 1 2 mph 1022.2mb 60f
4:42 1 2 mph 1022.3mb 60f
4:36 1 2 mph 1022.3mb 60f
4:30  -  1 mph 1022.3mb 60f
4:24 1 2 mph 1022.2mb 60f
4:18  -  2 mph 1022.2mb 60f
4:12  -  0 mph 1022.3mb 60f
4:06  -  0 mph 1022.3mb 60f
4:00  -  1 mph 1022.2mb 60f
3:54  -  3 mph 1022.1mb 60f
3:48 2 2 mph 1022.1mb 60f
3:42 1 2 mph 1022.1mb 60f
3:36 2 3 mph 1022mb 60f
3:30 5 5 mph 1022mb 60f
3:24 5 6 mph 1022mb 60f
3:18 5 6 mph 1022mb 60f
3:12 5 6 mph 1022mb 60f
3:06 5 6 mph 1022.1mb 60f
3:00 5 6 mph 1022mb 60f
2:54 5 6 mph 1022.1mb 60f
2:48 5 6 mph 1022mb 60f
2:42 5 6 mph 1022mb 60f
2:36 6 6 mph 1022mb 60f
2:30 6 7 mph 1022mb 60f
2:24 5 6 mph 1022.1mb 60f
2:18 5 6 mph 1022.2mb 60f
2:12 6 6 mph 1022mb 60f
2:06 6 6 mph 1022mb 60f
2:00 6 7 mph 1021.9mb 60f
1:54 6 8 mph 1021.9mb 60f
1:48 5 6 mph 1022mb -
1:42 5 6 mph 1022mb -
1:36 5 6 mph 1022mb -
1:30 5 6 mph 1022.1mb 59f
1:24 3 6 mph 1022.1mb 59f
1:18 2 5 mph 1022.2mb 59f
1:12 2 5 mph 1022.3mb 59f
1:06 3 5 mph 1022.3mb 59f
1:00 3 5 mph 1022.2mb 59f
12:54 5 6 mph 1022.1mb 59f
12:48 3 5 mph 1022.2mb 60f
12:42 3 3 mph 1022.2mb 60f
12:36 3 5 mph 1022.1mb 59f
12:30 3 6 mph 1022.1mb 59f
12:24 5 6 mph 1022.1mb 59f
12:18 3 5 mph 1022.2mb 60f
12:12 3 5 mph 1022.3mb 60f
12:06 5 6 mph 1022.4mb 60f
12:00 5 6 mph 1022.4mb 60f
mar 07/25 11:54 5 6 mph 1022.5mb 60f
11:48 5 6 mph 1022.5mb 60f
11:42 6 8 mph 1022.3mb 60f
11:36 5 6 mph 1022.3mb 61f
11:30 5 6 mph 1022.3mb 61f
11:24 6 7 mph 1022.3mb 61f
11:18 3 5 mph 1022.3mb 61f
11:12 2 5 mph 1022.2mb 61f
11:06 2 5 mph 1022.1mb 61f
11:00 3 5 mph 1022.1mb 61f
10:54 3 5 mph 1022.1mb 62f
10:48 3 6 mph 1022mb 62f
10:42 5 5 mph 1022mb 62f
10:36 5 6 mph 1021.9mb 62f
10:30 5 6 mph 1021.9mb 62f
10:24 3 5 mph 1022mb 62f
10:18 3 5 mph 1021.9mb 62f
10:12 5 6 mph 1022mb 62f
10:06 6 7 mph 1021.9mb 63f
10:00 6 7 mph 1021.8mb 63f
9:48 5 6 mph 1021.8mb 63f
9:42 5 6 mph 1021.8mb 63f
9:36 3 5 mph 1021.7mb 63f
9:30 5 5 mph 1021.7mb 63f
9:24 6 7 mph 1021.6mb 63f
9:18 6 7 mph 1021.6mb 63f
9:12 6 7 mph 1021.6mb 63f
9:06 5 6 mph 1021.7mb 63f
9:00 5 7 mph 1021.7mb 64f
8:48 6 7 mph 1021.5mb 64f
8:42 7 9 mph 1021.5mb 64f
8:36 6 8 mph 1021.4mb 64f
8:30 6 7 mph 1021.4mb 65f
8:24 7 9 mph 1021.3mb 65f
8:18 6 8 mph 1021.3mb 65f
8:12 7 9 mph 1021.3mb 65f
8:06 6 7 mph 1021.2mb 65f
8:00 5 7 mph 1021.1mb 66f
7:48 7 10 mph 1021.2mb 66f
7:42 8 11 mph 1021.1mb 66f
7:36 9 11 mph 1021mb 66f
7:30 8 10 mph 1020.9mb 67f
7:24 9 13 mph 1020.8mb 67f
7:18 9 13 mph 1020.7mb 67f
7:12 8 10 mph 1020.6mb 67f
7:06 8 10 mph 1020.6mb 67f
7:00 8 10 mph 1020.5mb 67f
6:54 9 11 mph 1020.4mb 66f
6:48 11 14 mph 1020.4mb 65f
6:42 14 17 mph 1020.4mb 65f
6:36 6 8 mph 1020.4mb 66f
6:30 7 9 mph 1020.4mb 65f
6:24 8 10 mph 1020.3mb 65f
6:18 10 13 mph 1020.3mb 65f
6:12 11 14 mph 1020.3mb 65f
6:06 10 11 mph 1020.3mb 65f
6:00 9 13 mph 1020.3mb 65f
5:54 10 14 mph 1020.2mb 65f
5:48 8 11 mph 1020.3mb 65f
5:42 8 11 mph 1020.3mb 65f
5:36 9 11 mph 1020.2mb 65f
5:30 9 11 mph 1020.1mb 65f
5:24 8 10 mph 1020.1mb 66f
5:18 9 11 mph 1020mb 65f
5:12 9 11 mph 1020mb 65f
5:06 11 14 mph 1019.9mb 65f
5:00 10 13 mph 1019.9mb 65f
4:54 11 14 mph 1019.9mb 65f
4:48 13 16 mph 1019.9mb 65f
4:42 11 15 mph 1019.9mb 65f
4:36 13 15 mph 1019.9mb 65f
4:30 13 16 mph 1019.9mb 65f
4:24 9 14 mph 1019.9mb 65f
4:18 8 11 mph 1019.9mb 65f
4:12 9 11 mph 1020mb 65f
4:06 8 11 mph 1020mb 65f
4:00 9 13 mph 1020mb 65f
3:54 9 14 mph 1020mb 65f
3:48 8 11 mph 1019.8mb 65f
3:42 9 13 mph 1019.8mb 65f
3:36 10 11 mph 1019.8mb 65f
3:30 10 14 mph 1019.8mb 65f
3:24 13 14 mph 1019.8mb 65f
3:18 11 14 mph 1019.8mb 65f
3:12 7 10 mph 1019.7mb 65f
3:06 9 10 mph 1019.6mb 65f
3:00 10 14 mph 1019.6mb 64f
2:54 14 20 mph 1019.7mb 64f
2:48 11 14 mph 1019.6mb 64f
2:42 11 14 mph 1019.5mb 64f
2:36 13 16 mph 1019.3mb 65f
2:30 10 14 mph 1019.2mb 65f
2:24 11 14 mph 1019.2mb 65f
2:18 13 15 mph 1019.1mb 64f
2:12 13 16 mph 1019.3mb 64f
2:06 10 16 mph 1019.3mb 64f
2:00 9 13 mph 1019.3mb 64f
1:54 10 15 mph 1019.2mb 63f
1:48 10 14 mph 1019.2mb 63f
1:42 11 18 mph 1019.2mb 63f
1:36 13 16 mph 1019.1mb 62f
1:30 11 16 mph 1018.9mb 62f
1:24 13 17 mph 1018.8mb 63f
1:18 13 16 mph 1018.7mb 63f
1:12 10 14 mph 1018.7mb 63f
1:06 10 13 mph 1018.7mb 63f
1:00 10 13 mph 1018.7mb 62f
12:54 13 15 mph 1018.7mb 62f
12:48 10 14 mph 1018.8mb 62f
12:42 13 16 mph 1018.7mb 63f
12:36 15 20 mph 1018.7mb 63f
12:30 15 18 mph 1018.7mb 63f
12:24 11 15 mph 1018.8mb 63f
12:18 10 14 mph 1018.8mb 63f
12:12 9 14 mph 1018.8mb 63f
12:06 13 16 mph 1018.7mb 63f
12:00 10 14 mph 1018.7mb 63f
11:54 14 17 mph 1018.5mb 62f
11:48 13 16 mph 1018.5mb 62f
11:42 15 20 mph 1018.4mb 62f
11:36 11 15 mph 1018.3mb 63f
11:30 15 18 mph 1018.2mb 62f
11:24 13 16 mph 1018.2mb 62f
11:18 13 16 mph 1018.1mb 62f
11:12 11 16 mph 1018.1mb 63f
11:06 13 16 mph 1018.1mb 62f
11:00 10 14 mph 1018.1mb 62f
10:54 14 17 mph 1018mb 62f
10:48 11 16 mph 1018.1mb 62f
10:42 13 16 mph 1018mb 62f
10:36 10 15 mph 1018mb 62f
10:30 10 14 mph 1018mb 62f
10:24 10 14 mph 1017.9mb 62f
10:18 13 15 mph 1017.9mb 62f
10:12 10 13 mph 1018mb 62f
10:06 9 14 mph 1017.9mb 61f
10:00 13 17 mph 1017.8mb 61f
9:54 10 17 mph 1017.7mb 61f
9:48 9 13 mph 1017.6mb 61f
9:42 11 16 mph 1017.5mb 61f
9:36 13 15 mph 1017.5mb 61f
9:30 11 14 mph 1017.5mb 61f
9:24 13 15 mph 1017.5mb 61f
9:18 10 14 mph 1017.6mb 61f
9:12 10 13 mph 1017.6mb 61f
9:06 10 14 mph 1017.6mb 61f
9:00 10 13 mph 1017.6mb 61f
8:54 9 14 mph 1017.6mb 61f
8:48 10 13 mph 1017.6mb 61f
8:42 10 13 mph 1017.5mb 62f
8:36 13 20 mph 1017.3mb 62f
8:30 11 16 mph 1017.2mb 62f
8:24 16 20 mph 1016.9mb 62f
8:18 14 17 mph 1016.8mb 62f
8:12 15 20 mph 1016.7mb 61f
8:06 13 16 mph 1016.7mb 61f
8:00 11 15 mph 1016.6mb 61f
7:54 14 17 mph 1016.6mb 61f
7:48 14 17 mph 1016.6mb 61f
7:42 14 17 mph 1016.5mb 61f
7:36 15 18 mph 1016.5mb 60f
7:30 14 16 mph 1016.4mb 60f
7:24 11 15 mph 1016.5mb 60f
7:18 9 11 mph 1016.5mb 60f
7:12 8 13 mph 1016.4mb 60f
7:06 10 13 mph 1016.2mb 60f
7:00 11 16 mph 1016.1mb 60f
6:54 10 13 mph 1016mb 60f
6:48 8 10 mph 1016mb 60f
6:42 7 10 mph 1016mb 60f
6:36 7 9 mph 1016mb 60f
6:30 8 10 mph 1015.9mb 60f
6:24 8 13 mph 1015.8mb 60f
6:18 9 11 mph 1015.6mb 60f
6:12 9 11 mph 1015.5mb 60f
6:06 10 14 mph 1015.6mb 60f
6:00 9 11 mph 1015.6mb 60f
5:54 8 11 mph 1015.7mb 60f
5:48 8 10 mph 1015.6mb 60f
5:42 11 16 mph 1015.4mb 60f
5:36 10 13 mph 1015.2mb 60f
5:30 11 16 mph 1015.1mb 60f
5:24 9 13 mph 1015.1mb 60f
5:18 11 15 mph 1015mb 60f
5:12 10 14 mph 1015mb 60f
5:06 10 14 mph 1015mb 60f
5:00 10 14 mph 1015mb 60f
4:54 10 14 mph 1014.8mb 60f
4:48 11 15 mph 1014.7mb 60f
4:42 9 14 mph 1014.6mb 60f
4:36 9 13 mph 1014.6mb 60f
4:30 8 13 mph 1014.5mb 60f
4:24 10 14 mph 1014.3mb 60f
4:18 10 13 mph 1014.4mb 60f
4:12 10 13 mph 1014.4mb 60f
4:06 13 20 mph 1014.1mb 60f
4:00 14 18 mph 1013.8mb 60f
3:54 13 16 mph 1013.8mb 60f
3:48 10 13 mph 1013.8mb 60f
3:42 11 15 mph 1014mb 60f
3:36 10 13 mph 1014.1mb 60f
3:30 8 13 mph 1014.1mb 60f
3:24 9 11 mph 1014.2mb 60f
3:18 8 11 mph 1014.1mb 60f
3:12 11 14 mph 1013.9mb 60f
3:06 9 13 mph 1013.9mb 60f
3:00 10 13 mph 1013.9mb 60f
2:54 11 15 mph 1013.8mb 60f
2:48 14 17 mph 1013.6mb -
2:42 14 21 mph 1013.6mb -
2:36 11 15 mph 1013.6mb -
2:30 10 13 mph 1013.7mb 61f
2:24 8 10 mph 1013.8mb 61f
2:18 7 10 mph 1013.9mb 61f
2:12 10 13 mph 1013.9mb 61f
2:06 13 16 mph 1013.7mb 61f
2:00 13 16 mph 1013.8mb 61f
1:54 13 15 mph 1013.8mb 61f
1:48 11 14 mph 1013.9mb 61f
1:42 11 15 mph 1014mb 62f
1:36 15 21 mph 1013.9mb 61f
1:30 13 16 mph 1013.8mb 61f
1:24 11 15 mph 1013.7mb 62f
1:18 14 18 mph 1013.6mb 61f
1:12 14 17 mph 1013.7mb 61f
1:06 14 20 mph 1013.7mb 61f
1:00 14 16 mph 1013.7mb 61f
12:54 14 21 mph 1013.8mb 61f
12:48 15 20 mph 1013.7mb 61f
12:42 14 18 mph 1013.6mb 61f
12:36 13 18 mph 1013.6mb 61f
12:30 13 17 mph 1013.5mb 61f
12:24 14 21 mph 1013.4mb 61f
12:18 13 15 mph 1013.4mb 61f
12:12 14 21 mph 1013.4mb 61f
12:06 17 25 mph 1013.2mb 61f
12:00 15 17 mph 1013.2mb 61f
lun 07/24 11:54 15 18 mph 1013.2mb 61f
11:48 11 16 mph 1013.2mb 61f
11:42 15 21 mph 1013mb 61f
11:36 11 15 mph 1013.2mb 61f
11:30 9 13 mph 1013.2mb 61f
11:24 9 13 mph 1013.1mb 61f
11:18 10 15 mph 1013mb 61f
11:12 13 17 mph 1012.8mb 61f
11:06 15 17 mph 1012.5mb 61f
11:00 13 17 mph 1012.6mb 61f
10:54 13 15 mph 1012.7mb 61f
10:48 13 14 mph 1012.6mb 61f
10:42 14 20 mph 1012.6mb 61f
10:36 14 17 mph 1012.3mb 61f
10:30 14 20 mph 1012.2mb 61f
10:24 15 21 mph 1012mb 61f
10:18 17 23 mph 1012mb 61f
10:12 17 24 mph 1011.8mb 62f
10:06 17 24 mph 1011.8mb 62f
10:00 16 18 mph 1011.7mb 62f
9:54 16 22 mph 1011.8mb 62f
9:48 15 22 mph 1011.7mb 62f
9:42 16 23 mph 1011.6mb 62f
9:36 15 20 mph 1011.6mb 62f
9:30 16 22 mph 1011.7mb 62f
9:24 14 17 mph 1011.8mb 62f
9:18 16 22 mph 1011.6mb 61f
9:12 13 18 mph 1011.6mb 62f
9:06 15 21 mph 1011.6mb 62f
9:00 17 26 mph 1011.5mb 62f
8:54 15 21 mph 1011.3mb 62f
8:48 16 23 mph 1011.2mb 62f
8:42 15 20 mph 1011.1mb 62f
8:36 14 21 mph 1011mb 62f
8:30 15 20 mph 1010.8mb 62f
8:24 14 18 mph 1010.8mb 61f
8:18 17 24 mph 1010.8mb 62f
8:12 14 18 mph 1010.7mb 61f
8:06 15 24 mph 1010.7mb 61f
8:00 16 22 mph 1010.5mb 62f
7:54 15 21 mph 1010.4mb 62f
7:48 14 21 mph 1010.2mb 62f
7:42 16 20 mph 1009.9mb 62f
7:36 18 25 mph 1009.8mb 62f
7:30 15 21 mph 1009.7mb 61f
7:24 18 24 mph 1009.7mb 61f
7:18 16 22 mph 1009.8mb 61f
7:12 16 23 mph 1009.8mb 61f
7:06 17 24 mph 1009.6mb 61f
7:00 15 22 mph 1009.5mb 61f
6:54 15 23 mph 1009.5mb 61f
6:48 14 20 mph 1009.5mb 61f
6:42 17 23 mph 1009.6mb 61f
6:36 13 20 mph 1009.7mb 60f
6:30 16 23 mph 1009.5mb 60f
6:24 11 16 mph 1009.5mb 60f
6:18 16 23 mph 1009.4mb 60f
6:12 16 24 mph 1009.4mb 60f
6:06 15 21 mph 1009.5mb 60f
6:00 16 21 mph 1009.5mb 60f
5:54 14 20 mph 1009.6mb 60f
5:48 16 23 mph 1009.5mb 60f
5:42 15 21 mph 1009.4mb 60f
5:36 17 25 mph 1009.3mb 60f
5:30 20 25 mph 1009.2mb 60f
5:24 15 22 mph 1009.3mb 60f
5:18 16 22 mph 1009.3mb 60f
5:12 17 22 mph 1009.3mb 60f
5:06 15 23 mph 1009.5mb 60f
5:00 16 25 mph 1009.4mb 60f
4:54 18 25 mph 1009.4mb 61f
4:48 17 23 mph 1009.5mb 60f
4:42 14 21 mph 1009.5mb 61f
4:36 14 21 mph 1009.5mb 61f
4:30 16 23 mph 1009.3mb 61f
4:24 22 30 mph 1008.9mb 61f
4:18 15 20 mph 1009mb 60f
4:12 17 29 mph 1009.2mb 61f
4:06 18 24 mph 1009mb 61f
4:00 20 29 mph 1008.7mb 61f
3:54 22 31 mph 1008.5mb 61f
3:48 16 22 mph 1008.8mb 60f
3:42 18 25 mph 1009.1mb 60f
3:36 21 26 mph 1008.8mb 60f
3:30 18 22 mph 1008.8mb 60f
3:24 15 21 mph 1009.1mb 60f
3:18 17 23 mph 1009mb 60f
3:12 14 21 mph 1009.1mb 60f
3:06 13 20 mph 1009.2mb 61f
3:00 14 22 mph 1009mb 61f
2:54 18 24 mph 1008.9mb 61f
2:48 18 23 mph 1009.3mb 61f
2:42 17 23 mph 1009.6mb 61f
2:36 13 17 mph 1009.5mb 61f
2:30 17 21 mph 1009.2mb 61f
2:24 14 17 mph 1009.3mb 61f
2:18 13 16 mph 1009.3mb 61f
2:12 13 18 mph 1009.2mb 61f
2:06 14 18 mph 1009.2mb 62f
2:00 15 17 mph 1009.3mb 62f
1:54 14 17 mph 1009.2mb 62f
1:48 10 15 mph 1009.2mb 62f
1:42 14 16 mph 1009.2mb 62f
1:36 14 18 mph 1009.1mb 62f
1:30 18 23 mph 1009mb 62f
1:24 18 21 mph 1009mb 62f
1:18 17 21 mph 1009.1mb 62f
1:12 16 20 mph 1009.1mb 63f
1:06 15 22 mph 1009.5mb 62f
1:00 15 20 mph 1009.7mb 62f
12:54 14 18 mph 1009.9mb 62f
12:48 13 15 mph 1009.8mb 62f
12:42 14 18 mph 1009.6mb 62f
12:36 16 18 mph 1009.3mb 62f
12:30 14 18 mph 1009.3mb 62f
12:24 14 18 mph 1009.4mb 62f
12:18 15 20 mph 1009.4mb 63f
12:12 17 21 mph 1009.2mb 63f
12:06 18 24 mph 1009.2mb 64f
12:00 16 21 mph 1009.3mb 64f
11:54 18 22 mph 1009.3mb 63f
11:48 18 24 mph 1009.3mb 63f
11:42 18 24 mph 1009.3mb 63f
11:36 17 22 mph 1009.6mb 63f
11:30 18 23 mph 1009.7mb 63f
11:24 20 25 mph 1009.7mb 62f
11:18 16 22 mph 1010.1mb 62f
11:12 16 23 mph 1010.2mb 63f
11:06 16 21 mph 1010.3mb 63f
11:00 16 20 mph 1010.5mb 63f
10:54 15 18 mph 1010.6mb 63f
10:48 15 18 mph 1010.7mb 62f
10:42 13 17 mph 1010.9mb 62f
10:36 13 16 mph 1010.8mb 62f
10:30 13 15 mph 1010.9mb 62f
10:24 13 16 mph 1011mb 62f
10:18 13 16 mph 1010.9mb 62f
10:12 13 14 mph 1010.9mb 63f
10:06 11 15 mph 1011mb 62f
10:00 10 16 mph 1011.1mb 62f
9:54 13 21 mph 1011mb 62f
9:48 15 20 mph 1010.6mb 62f
9:42 17 24 mph 1010.6mb 62f
9:36 16 21 mph 1010.6mb 62f
9:30 15 17 mph 1010.6mb 62f
9:24 15 18 mph 1010.4mb 62f
9:18 15 18 mph 1010.6mb 62f
9:12 14 17 mph 1010.9mb 62f
9:06 15 20 mph 1010.9mb 62f
9:00 15 18 mph 1011mb 62f
8:54 14 15 mph 1011.1mb 62f
8:48 13 16 mph 1011.3mb 63f
8:42 10 11 mph 1011.4mb 63f
8:36 11 14 mph 1011.4mb 63f
8:30 9 13 mph 1011.4mb 63f
8:24 11 14 mph 1011.1mb 63f
8:18 9 11 mph 1011.4mb 63f
8:12 10 13 mph 1011.4mb 63f
8:06 10 11 mph 1011.3mb 63f
8:00 11 14 mph 1011.2mb 63f
7:54 9 11 mph 1011.3mb 64f
7:48 9 11 mph 1011.2mb 64f
7:42 10 13 mph 1011mb 64f
7:36 11 16 mph 1010.8mb 64f
7:30 13 17 mph 1010.7mb 65f
7:24 11 15 mph 1011mb 65f
7:18 10 13 mph 1011.1mb 65f
7:12 11 15 mph 1011.2mb 65f
7:06 10 14 mph 1011.3mb 65f
7:00 10 14 mph 1011.3mb 66f
6:54 9 11 mph 1011.4mb 66f
6:48 10 13 mph 1011.4mb 66f
6:42 9 11 mph 1011.4mb 66f
6:36 8 13 mph 1011.5mb 67f
6:30 8 13 mph 1011.6mb 67f
6:24 7 11 mph 1011.6mb 67f
6:18 7 9 mph 1011.6mb 67f
6:12 7 10 mph 1011.7mb 67f
6:06 8 11 mph 1011.6mb 67f
6:00 8 10 mph 1011.7mb 67f
5:54 10 15 mph 1011.8mb 67f
5:48 9 14 mph 1011.8mb 67f
5:42 7 9 mph 1012mb 68f
5:36 7 10 mph 1012.1mb 67f
5:30 8 11 mph 1011.8mb 68f
5:24 8 11 mph 1011.6mb 68f
5:18 9 13 mph 1011.6mb 68f
5:12 10 13 mph 1011.6mb 68f
5:06 10 14 mph 1011.5mb 68f
5:00 11 15 mph 1011.3mb 68f
4:54 11 15 mph 1011.3mb 68f
4:48 9 14 mph 1011.3mb 68f
4:42 11 14 mph 1011.2mb 68f
4:36 10 15 mph 1011.5mb 68f
4:30 8 11 mph 1011.7mb 68f
4:24 7 11 mph 1012mb 68f
4:18 6 9 mph 1011.8mb 68f
4:12 8 11 mph 1011.9mb 68f
4:06 8 10 mph 1011.9mb 68f
4:00 7 9 mph 1011.8mb 68f
3:54 7 10 mph 1011.7mb 68f
3:48 7 10 mph 1011.7mb 68f
3:42 7 9 mph 1011.8mb 68f
3:36 6 9 mph 1011.8mb 68f
3:30 7 9 mph 1011.8mb 68f
3:24 6 9 mph 1012mb 67f
3:18 6 8 mph 1012mb 67f
3:12 7 10 mph 1011.9mb 67f
3:06 7 11 mph 1011.9mb 67f
3:00 9 11 mph 1011.9mb 68f
2:54 8 11 mph 1011.8mb 67f
2:48 8 10 mph 1011.6mb 67f
2:42 8 10 mph 1011.7mb 67f
2:36 7 8 mph 1011.9mb 67f
2:30 7 8 mph 1012.1mb 67f
2:24 9 10 mph 1012.2mb 67f
2:18 8 10 mph 1012.2mb 67f
2:12 8 9 mph 1012.3mb 67f
2:06 7 8 mph 1012.3mb 67f
2:00 3 6 mph 1012.5mb 67f
1:54 5 6 mph 1012.5mb 67f
1:48 5 7 mph 1012.6mb -
1:42 6 7 mph 1012.4mb -
1:36 6 8 mph 1012.6mb -
1:30 6 7 mph 1012.5mb 67f
1:24 7 9 mph 1012.4mb 67f
1:18 7 10 mph 1012.4mb 67f
1:12 7 9 mph 1012.4mb 67f
1:06 6 8 mph 1012.5mb 67f
1:00 7 9 mph 1012.6mb 67f
12:54 7 8 mph 1012.7mb 67f
12:48 6 7 mph 1013mb 67f
12:42 6 9 mph 1013mb 67f
12:36 6 8 mph 1013mb 67f
12:30 6 8 mph 1012.9mb 67f
12:24 6 8 mph 1012.8mb 67f
12:18 7 9 mph 1012.9mb 67f
12:12 10 14 mph 1012.9mb 67f
12:06 6 8 mph 1012.9mb 67f
12:00 3 6 mph 1013mb 67f
dom 07/23 11:54 5 6 mph 1012.9mb 67f
11:48 5 7 mph 1012.7mb 67f
11:42 6 8 mph 1012.6mb 67f
11:36 7 8 mph 1012.4mb 67f
11:30 7 9 mph 1012.3mb 67f
11:24 7 9 mph 1012.3mb 67f
11:18 8 10 mph 1012.4mb 67f
11:12 8 10 mph 1012.2mb 67f
11:06 9 13 mph 1012.2mb 67f
11:00 8 10 mph 1012.3mb 67f
10:54 8 11 mph 1012.4mb 67f
10:48 7 10 mph 1012.5mb 67f
10:42 7 8 mph 1012.4mb 67f
10:36 8 11 mph 1012.4mb 67f
10:30 9 11 mph 1012.4mb 68f
10:24 8 10 mph 1012.5mb 68f
10:18 7 9 mph 1012.5mb 67f
10:12 7 9 mph 1012.5mb 68f
10:06 7 8 mph 1012.5mb 67f
10:00 7 10 mph 1012.4mb 67f
9:54 8 15 mph 1012.4mb 67f
9:48 8 9 mph 1012.4mb 68f
9:42 6 8 mph 1012.5mb 68f
9:36 8 10 mph 1012.3mb 68f
9:30 8 10 mph 1012.3mb 68f
9:24 8 10 mph 1012.5mb 68f
9:18 8 10 mph 1012.4mb 68f
9:12 8 11 mph 1012.3mb 68f
9:06 8 10 mph 1012.3mb 68f
9:00 7 9 mph 1012.4mb 68f
8:54 8 10 mph 1012.2mb 68f
8:48 8 10 mph 1012.2mb 69f
8:42 8 11 mph 1012.3mb 69f
8:36 8 10 mph 1012.3mb 69f
8:30 9 11 mph 1012.2mb 69f
8:24 9 11 mph 1012.1mb 69f
8:18 9 11 mph 1012mb 69f
8:12 9 11 mph 1011.9mb 70f
8:06 10 11 mph 1011.8mb 70f
8:00 9 11 mph 1011.7mb 70f
7:54 8 13 mph 1011.8mb 70f
7:48 9 11 mph 1011.7mb 70f
7:42 9 11 mph 1011.6mb 71f
7:36 10 13 mph 1011.7mb 71f
7:30 9 11 mph 1011.6mb 71f
7:24 9 13 mph 1011.5mb 71f
7:18 10 13 mph 1011.5mb 71f
7:12 13 16 mph 1011.3mb 71f
7:06 13 16 mph 1011.1mb 72f
7:00 13 15 mph 1011.2mb 72f
6:54 11 14 mph 1011.1mb 73f
6:48 11 14 mph 1011.2mb 73f
6:42 10 13 mph 1011.2mb 73f
6:36 11 15 mph 1011.1mb 73f
6:30 9 13 mph 1011mb 73f
6:24 10 14 mph 1010.9mb 73f
6:18 11 16 mph 1011mb 74f
6:12 10 14 mph 1010.9mb 74f
6:06 10 13 mph 1010.9mb 74f
6:00 11 14 mph 1010.8mb 74f
5:54 9 11 mph 1010.9mb 75f
5:48 10 14 mph 1011mb 75f
5:42 9 11 mph 1010.8mb 75f
5:36 8 11 mph 1010.8mb 75f
5:30 8 13 mph 1010.7mb 75f
5:24 10 13 mph 1010.7mb 75f
5:18 10 14 mph 1010.7mb 75f
5:12 11 14 mph 1010.7mb 75f
5:06 9 13 mph 1010.8mb 75f
5:00 11 15 mph 1010.7mb 75f
4:54 11 14 mph 1010.8mb 75f
4:48 11 14 mph 1010.7mb 75f
4:42 10 13 mph 1010.8mb 75f
4:36 11 14 mph 1010.7mb 75f
4:30 10 14 mph 1010.7mb 76f
4:24 8 10 mph 1010.7mb 75f
4:18 9 11 mph 1010.6mb 75f
4:12 9 11 mph 1010.6mb 75f
4:06 10 15 mph 1010.6mb 75f
4:00 14 15 mph 1010.6mb 75f
3:54 11 14 mph 1010.5mb 75f
3:48 10 14 mph 1010.4mb 75f
3:42 13 16 mph 1010.5mb 75f
3:36 11 16 mph 1010.3mb 75f
3:30 13 17 mph 1010.5mb 75f
3:24 14 16 mph 1010.5mb 75f
3:18 13 16 mph 1010.5mb 75f
3:12 13 15 mph 1010.6mb 75f
3:06 11 13 mph 1010.7mb 75f
3:00 11 14 mph 1010.6mb 76f
2:54 10 14 mph 1010.6mb 75f
2:48 14 17 mph 1010.5mb 75f
2:42 15 18 mph 1010.5mb 75f
2:36 11 16 mph 1010.6mb 75f
2:30 10 14 mph 1010.6mb 75f
2:24 15 17 mph 1010.6mb 74f
2:18 14 18 mph 1010.7mb 74f
2:12 11 14 mph 1010.6mb 75f
2:06 13 16 mph 1010.6mb 74f
2:00 11 14 mph 1010.7mb 74f
1:54 13 16 mph 1010.7mb 74f
1:48 15 20 mph 1010.6mb 74f
1:42 13 21 mph 1010.7mb 74f
1:36 15 18 mph 1010.6mb 74f
1:30 14 18 mph 1010.6mb 74f
1:24 15 21 mph 1010.6mb 74f
1:18 14 20 mph 1010.7mb 74f
1:12 14 17 mph 1010.6mb 75f
1:06 14 18 mph 1010.6mb 74f
1:00 14 18 mph 1010.4mb 74f
12:54 15 18 mph 1010.4mb 74f
12:48 10 16 mph 1010.4mb 74f
12:42 14 22 mph 1010.4mb 74f
12:36 14 17 mph 1010.4mb 73f
12:30 16 22 mph 1010.2mb 73f
12:24 17 22 mph 1010.1mb 73f
12:18 15 18 mph 1010mb 73f
12:12 16 20 mph 1009.9mb 73f
12:06 17 22 mph 1009.9mb 73f
12:00 17 24 mph 1009.9mb 73f
11:54 18 23 mph 1009.8mb 73f
11:48 15 23 mph 1010.1mb 74f
11:42 16 22 mph 1010.1mb 74f
11:36 18 25 mph 1010mb 73f
11:30 15 21 mph 1009.9mb 74f
11:24 17 23 mph 1010mb 74f
11:18 16 21 mph 1009.9mb 74f
11:12 20 28 mph 1009.9mb 74f
11:06 23 30 mph 1010mb 74f
11:00 18 24 mph 1009.8mb 74f
10:54 16 22 mph 1009.8mb 74f
10:48 18 24 mph 1009.8mb 74f
10:42 18 23 mph 1009.8mb 74f
10:36 18 23 mph 1009.7mb 74f
10:30 18 24 mph 1009.7mb 73f
10:24 15 21 mph 1009.7mb 74f
10:18 16 21 mph 1009.8mb 73f
10:12 16 22 mph 1009.6mb 73f
10:06 14 17 mph 1009.5mb 73f
10:00 17 24 mph 1009.5mb 73f
9:54 21 24 mph 1009.3mb 73f
9:48 15 22 mph 1009.2mb 73f
9:42 14 17 mph 1009.1mb 73f
9:36 16 22 mph 1009mb 73f
9:30 16 23 mph 1008.8mb 73f
9:24 16 21 mph 1008.8mb 73f
9:18 15 18 mph 1008.7mb 73f
9:12 18 25 mph 1008.7mb 72f
9:06 17 22 mph 1008.9mb 72f
9:00 17 22 mph 1008.7mb 72f
8:54 16 22 mph 1008.5mb 72f
8:48 21 25 mph 1008.5mb 72f
8:42 21 25 mph 1008.5mb 72f
8:36 18 22 mph 1008.4mb 71f
8:30 20 24 mph 1008.2mb 72f
8:24 20 24 mph 1008.1mb 72f
8:18 22 26 mph 1008.1mb 71f
8:12 22 29 mph 1007.9mb 71f
8:06 25 31 mph 1007.8mb 71f
8:00 23 31 mph 1007.8mb 71f
7:54 24 29 mph 1007.8mb 71f
7:48 22 26 mph 1007.9mb 71f
7:42 23 29 mph 1007.7mb 72f
7:36 22 26 mph 1007.5mb 72f
7:30 25 32 mph 1007.6mb 71f
7:24 22 28 mph 1007.6mb 72f
7:18 22 26 mph 1007.4mb 72f
7:12 22 25 mph 1007.2mb 72f
7:06 18 23 mph 1007.1mb 73f
7:00 17 21 mph 1007mb 73f
6:54 20 24 mph 1006.8mb 73f
6:48 17 22 mph 1006.7mb 72f
6:42 17 21 mph 1006.7mb 73f
6:36 16 22 mph 1006.6mb 73f
6:30 15 18 mph 1006.6mb 73f
6:24 17 21 mph 1006.4mb 73f
6:18 16 20 mph 1006.2mb 73f
6:12 14 18 mph 1006.2mb 73f
6:06 13 16 mph 1006.2mb 73f
6:00 13 20 mph 1006.1mb 73f
5:54 14 16 mph 1006mb 73f
5:48 13 14 mph 1006mb 73f
5:42 10 14 mph 1006mb 73f
5:36 10 14 mph 1006mb 73f
5:30 7 9 mph 1006mb 73f
5:24 6 9 mph 1005.9mb 73f
5:18 5 5 mph 1006.1mb 73f
5:12 3 5 mph 1006.1mb 73f
5:06 2 3 mph 1006mb 73f
5:00 2 2 mph 1005.9mb 74f
4:54 2 3 mph 1005.8mb 74f
4:48 3 5 mph 1005.7mb 74f
4:42 3 3 mph 1005.8mb 74f
4:36 3 3 mph 1005.8mb 74f
4:30 5 5 mph 1005.8mb 74f
4:24 3 3 mph 1005.8mb 74f
4:18 3 3 mph 1005.9mb 74f
4:12 2 3 mph 1005.8mb 74f
4:06 2 3 mph 1005.9mb 74f
4:00 3 3 mph 1005.9mb 74f
3:54 2 2 mph 1005.9mb 74f
3:48 2 2 mph 1005.9mb 74f
3:42 2 3 mph 1006mb 74f
3:36 3 3 mph 1006mb 74f
3:30 2 3 mph 1006mb 74f
3:24 3 3 mph 1006mb 74f
3:18 2 3 mph 1006mb 74f
3:12 2 2 mph 1006mb 74f
3:06 3 3 mph 1006.1mb 74f
3:00 5 5 mph 1006.1mb 74f
2:54 2 2 mph 1006mb 74f
2:48 2 2 mph 1006.1mb -
2:42 2 3 mph 1006.2mb -
2:36 3 3 mph 1006.3mb -
2:30 3 3 mph 1006.4mb 74f
2:24 2 2 mph 1006.4mb 74f
2:18 3 3 mph 1006.4mb 75f
2:12 3 3 mph 1006.6mb 75f
2:06 3 3 mph 1006.6mb 75f
2:00 1 2 mph 1006.6mb 74f
1:54  -  1 mph 1006.5mb 74f
1:48  -  1 mph 1006.6mb -
1:42  -  0 mph 1006.6mb -
1:36  -  0 mph 1006.6mb -
1:30  -  1 mph 1006.8mb 74f
1:24 2 2 mph 1006.9mb 74f
1:18  -  2 mph 1007mb 74f
1:12 1 2 mph 1007.1mb 74f
1:06  -  0 mph 1007.1mb 74f
1:00  -  1 mph 1007.1mb 74f
12:54 2 5 mph 1007.3mb 74f
12:48 3 3 mph 1007.3mb 74f
12:42 6 9 mph 1007.5mb 75f
12:36 6 8 mph 1007.5mb 75f
12:30 5 6 mph 1007.6mb 75f
12:24 6 6 mph 1007.5mb 75f
12:18 5 5 mph 1007.4mb 75f
12:12 2 3 mph 1007.5mb 75f
12:06 3 5 mph 1007.5mb 75f
12:00 3 5 mph 1007.6mb 75f
sáb 07/22 11:54 5 6 mph 1007.7mb 75f
11:48 6 7 mph 1007.7mb 75f
11:42 6 7 mph 1007.7mb 75f
11:36 5 6 mph 1007.8mb 75f
11:30 6 6 mph 1007.9mb 75f
11:24 5 6 mph 1007.8mb 75f
11:18 6 6 mph 1007.8mb 75f
11:12 6 6 mph 1007.7mb 75f
11:06 6 6 mph 1007.8mb 75f
11:00 6 7 mph 1007.9mb 75f
10:54 7 8 mph 1007.9mb 75f
10:48 8 10 mph 1007.9mb 75f